Time;durP1;ratioP1;P1;durP2;ratioP2;P2;SDS_P1;SDS_P2;PMS_P1;PMS_P2;Temp;Humidity;BMP_temperature;BMP_pressure;BME280_temperature;BME280_humidity;BME280_pressure;Samples;Min_cycle;Max_cycle;Signal;HPM_P1;HPM_P2
2021/12/24 00:00:45;;;;;;;51.15;31.65;;;-4.30;99.90;;;;;;5051542;28;20395;-87
2021/12/24 00:03:13;;;;;;;46.50;27.52;;;-4.30;99.90;;;;;;5049978;28;20479;-84
2021/12/24 00:05:41;;;;;;;52.17;31.67;;;-4.40;99.90;;;;;;5036428;28;20402;-86
2021/12/24 00:08:09;;;;;;;54.42;32.65;;;-4.40;99.90;;;;;;5053673;28;20444;-85
2021/12/24 00:10:38;;;;;;;55.20;33.05;;;-4.40;99.90;;;;;;5052404;28;20422;-86
2021/12/24 00:13:11;;;;;;;56.38;33.03;;;-4.50;99.90;;;;;;5053696;28;20383;-85
2021/12/24 00:35:06;;;;;;;54.65;32.95;;;-4.60;99.90;;;;;;5053873;28;20392;-86
2021/12/24 00:37:19;;;;;;;53.58;31.55;;;-4.70;99.90;;;;;;5033699;28;20404;-86
2021/12/24 00:40:33;;;;;;;54.80;32.72;;;-4.70;99.90;;;;;;5015996;28;20397;-86
2021/12/24 00:42:36;;;;;;;56.10;32.95;;;-4.70;99.90;;;;;;5016095;28;20400;-85
2021/12/24 00:45:05;;;;;;;58.95;34.60;;;-4.70;99.90;;;;;;5032329;28;20385;-85
2021/12/24 00:47:32;;;;;;;55.25;32.45;;;-4.70;99.90;;;;;;5032266;28;20401;-85
2021/12/24 00:50:06;;;;;;;54.60;32.83;;;-4.80;99.90;;;;;;5036232;28;20392;-85
2021/12/24 00:52:47;;;;;;;53.72;31.50;;;-4.80;99.90;;;;;;5052289;28;20412;-86
2021/12/24 00:55:17;;;;;;;52.33;30.35;;;-4.80;99.90;;;;;;5015479;28;20492;-86
2021/12/24 00:57:47;;;;;;;52.40;31.43;;;-4.90;99.90;;;;;;5032180;28;20405;-86
2021/12/24 01:00:24;;;;;;;55.25;33.33;;;-4.90;99.90;;;;;;5033166;28;20390;-86
2021/12/24 01:02:54;;;;;;;53.45;31.70;;;-4.90;99.90;;;;;;5032651;28;20401;-86
2021/12/24 01:05:24;;;;;;;54.33;33.10;;;-4.90;99.90;;;;;;5034531;28;20439;-84
2021/12/24 01:07:53;;;;;;;53.67;32.00;;;-5.00;99.90;;;;;;5051745;28;20450;-86
2021/12/24 01:10:28;;;;;;;59.78;34.47;;;-5.10;99.90;;;;;;5051614;28;20396;-83
2021/12/24 01:12:57;;;;;;;54.75;33.08;;;-5.10;99.90;;;;;;5035370;28;20411;-84
2021/12/24 01:15:25;;;;;;;56.75;32.65;;;-5.10;99.90;;;;;;5028247;28;20456;-83
2021/12/24 01:18:05;;;;;;;52.40;31.23;;;-5.20;99.90;;;;;;5041298;28;20438;-83
2021/12/24 01:20:50;;;;;;;55.40;33.60;;;-5.20;99.90;;;;;;5045435;28;20395;-84
2021/12/24 01:26:45;;;;;;;56.10;33.42;;;-5.20;99.90;;;;;;4974659;28;20489;-84
2021/12/24 01:42:47;;;;;;;53.28;32.45;;;-5.40;99.90;;;;;;5047707;28;20425;-83
2021/12/24 01:45:21;;;;;;;56.00;33.33;;;-5.40;99.90;;;;;;5034324;28;20392;-84
2021/12/24 01:48:02;;;;;;;54.93;32.80;;;-5.40;99.90;;;;;;5051005;28;20388;-84
2021/12/24 01:50:33;;;;;;;57.70;33.63;;;-5.30;99.90;;;;;;5050931;28;20399;-83
2021/12/24 01:53:04;;;;;;;54.42;32.67;;;-5.40;99.90;;;;;;5050817;28;20478;-83
2021/12/24 01:55:34;;;;;;;55.65;33.42;;;-5.40;99.90;;;;;;5050795;28;20395;-83
2021/12/24 01:58:03;;;;;;;57.05;34.08;;;-5.40;99.90;;;;;;5034376;28;20475;-84
2021/12/24 02:00:36;;;;;;;55.58;33.65;;;-5.40;99.90;;;;;;5050605;28;20411;-84
2021/12/24 02:03:07;;;;;;;59.50;35.88;;;-5.40;99.90;;;;;;5050731;28;20419;-84
2021/12/24 02:05:36;;;;;;;55.08;35.03;;;-5.50;99.90;;;;;;5050778;28;21031;-84
2021/12/24 02:08:08;;;;;;;59.70;35.67;;;-5.50;99.90;;;;;;5030763;28;20386;-83
2021/12/24 02:10:37;;;;;;;62.35;37.25;;;-5.50;99.90;;;;;;5030379;28;20385;-84
2021/12/24 02:13:05;;;;;;;58.30;34.70;;;-5.50;99.90;;;;;;5014490;28;20409;-84
2021/12/24 02:15:50;;;;;;;57.60;34.53;;;-5.50;99.90;;;;;;5030722;28;20394;-83
2021/12/24 02:29:31;;;;;;;54.75;34.53;;;-5.60;99.90;;;;;;5030198;28;20767;-83
2021/12/24 02:31:59;;;;;;;56.83;35.25;;;-5.60;99.90;;;;;;5030365;28;20409;-84
2021/12/24 02:34:27;;;;;;;64.32;37.90;;;-5.60;99.90;;;;;;5013996;28;20394;-83
2021/12/24 02:36:55;;;;;;;60.80;38.03;;;-5.60;99.90;;;;;;5014112;28;20404;-84
2021/12/24 02:39:23;;;;;;;62.03;37.38;;;-5.60;99.90;;;;;;5031371;28;20415;-83
2021/12/24 02:41:50;;;;;;;61.03;37.95;;;-5.60;99.90;;;;;;5030267;28;20390;-84
2021/12/24 02:44:19;;;;;;;63.08;39.50;;;-5.60;99.90;;;;;;5030330;28;20867;-83
2021/12/24 02:55:16;;;;;;;64.05;39.65;;;-5.70;99.90;;;;;;5030063;28;20424;-83
2021/12/24 02:57:44;;;;;;;66.50;40.50;;;-5.80;99.90;;;;;;5030054;28;20396;-84
2021/12/24 03:00:15;;;;;;;71.43;44.25;;;-5.70;99.90;;;;;;5029987;28;20990;-83
2021/12/24 03:02:44;;;;;;;64.23;40.77;;;-5.70;99.90;;;;;;5013843;28;20400;-82
2021/12/24 03:05:14;;;;;;;62.75;40.60;;;-5.70;99.90;;;;;;5031840;28;20450;-82
2021/12/24 03:07:42;;;;;;;66.65;40.85;;;-5.80;99.90;;;;;;5030013;28;20397;-83
2021/12/24 03:10:17;;;;;;;68.13;43.55;;;-5.80;99.90;;;;;;5031151;28;20401;-83
2021/12/24 03:12:47;;;;;;;70.30;43.78;;;-5.80;99.90;;;;;;5029937;28;20783;-83
2021/12/24 03:15:17;;;;;;;69.55;43.72;;;-5.80;99.90;;;;;;5029895;28;20496;-83
2021/12/24 03:17:51;;;;;;;67.87;43.60;;;-5.80;99.90;;;;;;5013575;28;20397;-83
2021/12/24 03:20:20;;;;;;;69.32;44.05;;;-5.80;99.90;;;;;;5031062;28;20408;-83
2021/12/24 03:23:04;;;;;;;68.30;42.72;;;-5.80;99.90;;;;;;5013596;28;20394;-83
2021/12/24 03:25:33;;;;;;;69.32;44.75;;;-5.80;99.90;;;;;;5029676;28;20398;-83
2021/12/24 03:28:00;;;;;;;68.07;42.90;;;-5.80;99.90;;;;;;5013485;28;20410;-82
2021/12/24 03:30:29;;;;;;;73.57;45.38;;;-5.80;99.90;;;;;;5029663;28;20421;-84
2021/12/24 03:32:56;;;;;;;70.60;44.05;;;-5.80;99.90;;;;;;5040446;28;20455;-83
2021/12/24 03:35:25;;;;;;;70.40;44.55;;;-5.80;99.90;;;;;;5030020;28;20401;-82
2021/12/24 03:37:52;;;;;;;71.75;44.28;;;-5.90;99.90;;;;;;5029730;28;20394;-83
2021/12/24 03:40:21;;;;;;;70.70;44.10;;;-5.90;99.90;;;;;;5029536;28;20407;-82
2021/12/24 03:42:49;;;;;;;72.78;46.90;;;-5.90;99.90;;;;;;5029770;28;20401;-84
2021/12/24 03:45:37;;;;;;;77.75;47.55;;;-5.90;99.90;;;;;;5030971;28;20389;-84
2021/12/24 03:48:15;;;;;;;77.18;46.78;;;-5.90;99.90;;;;;;5029654;28;20401;-84
2021/12/24 03:51:05;;;;;;;80.67;48.00;;;-5.90;99.90;;;;;;5029576;28;20408;-83
2021/12/24 03:56:19;;;;;;;76.70;47.13;;;-5.90;99.90;;;;;;5029487;28;20760;-82
2021/12/24 03:58:47;;;;;;;75.28;47.13;;;-6.00;99.90;;;;;;5029393;28;20396;-83
2021/12/24 04:01:35;;;;;;;75.43;46.33;;;-6.00;99.90;;;;;;5031979;28;20397;-83
2021/12/24 04:04:23;;;;;;;76.10;47.45;;;-6.10;99.90;;;;;;4993350;28;20439;-83
2021/12/24 04:07:20;;;;;;;78.18;48.15;;;-6.00;99.90;;;;;;4985290;28;20937;-85
2021/12/24 04:13:20;;;;;;;79.55;48.88;;;-6.10;99.90;;;;;;5031995;28;20398;-82
2021/12/24 04:15:48;;;;;;;75.30;46.50;;;-6.10;99.90;;;;;;5032912;28;20440;-82
2021/12/24 04:18:46;;;;;;;77.05;48.65;;;-6.10;99.90;;;;;;5032847;28;20401;-82
2021/12/24 04:26:41;;;;;;;74.95;45.92;;;-6.10;99.90;;;;;;5032630;28;20555;-82
2021/12/24 04:29:08;;;;;;;80.95;48.53;;;-6.20;99.90;;;;;;5016078;28;20394;-85
2021/12/24 04:31:55;;;;;;;80.37;48.03;;;-6.20;99.90;;;;;;5032659;28;20396;-82
2021/12/24 04:34:47;;;;;;;81.18;48.70;;;-6.20;99.90;;;;;;5033829;28;20381;-84
2021/12/24 04:51:28;;;;;;;80.13;49.03;;;-6.20;99.90;;;;;;5032263;28;20883;-83
2021/12/24 05:02:51;;;;;;;76.85;46.30;;;-6.30;99.90;;;;;;5032121;28;20484;-82
2021/12/24 05:05:35;;;;;;;80.85;47.17;;;-6.30;99.90;;;;;;5015935;28;20408;-85
2021/12/24 05:10:37;;;;;;;81.00;47.43;;;-6.30;99.90;;;;;;5048699;28;20483;-84
2021/12/24 05:13:11;;;;;;;79.45;46.72;;;-6.30;99.90;;;;;;5035012;28;20434;-84
2021/12/24 05:16:05;;;;;;;82.37;50.30;;;-6.30;99.90;;;;;;5053013;28;20884;-84
2021/12/24 05:21:33;;;;;;;74.60;46.40;;;-6.20;99.90;;;;;;5053004;28;20394;-84
2021/12/24 05:22:10;;;;;;;73.72;44.97;;;-6.20;99.90;;;;;;5052833;28;20396;-84
2021/12/24 05:24:40;;;;;;;77.30;44.95;;;-6.30;99.90;;;;;;5051577;28;20388;-84
2021/12/24 05:27:08;;;;;;;77.00;44.58;;;-6.20;99.90;;;;;;5052704;28;20754;-84
2021/12/24 05:29:35;;;;;;;71.88;43.85;;;-6.30;99.90;;;;;;5051326;28;20400;-84
2021/12/24 05:32:05;;;;;;;75.30;45.00;;;-6.30;99.90;;;;;;5051458;28;20465;-84
2021/12/24 05:34:33;;;;;;;73.93;44.67;;;-6.30;99.90;;;;;;5051413;28;20940;-83
2021/12/24 05:37:01;;;;;;;73.47;44.50;;;-6.30;99.90;;;;;;5026738;28;20485;-84
2021/12/24 05:39:29;;;;;;;79.57;48.63;;;-6.30;99.90;;;;;;5031233;28;20891;-83
2021/12/24 05:41:58;;;;;;;77.25;46.30;;;-6.30;99.90;;;;;;5031292;28;20390;-83
2021/12/24 05:44:27;;;;;;;72.03;43.67;;;-6.30;99.90;;;;;;5031146;28;20397;-84
2021/12/24 05:47:21;;;;;;;74.55;44.60;;;-6.20;99.90;;;;;;5001526;28;20536;-83
2021/12/24 05:49:50;;;;;;;76.70;46.58;;;-6.20;99.90;;;;;;5014996;28;20404;-83
2021/12/24 05:52:56;;;;;;;71.32;42.67;;;-6.20;99.90;;;;;;4971317;28;20410;-83
2021/12/24 05:55:49;;;;;;;75.75;45.40;;;-6.30;99.90;;;;;;4954984;28;20402;-84
2021/12/24 05:58:21;;;;;;;72.97;45.13;;;-6.30;99.90;;;;;;5015512;28;20431;-85
2021/12/24 06:00:49;;;;;;;72.80;42.63;;;-6.30;99.90;;;;;;5050737;28;20864;-83
2021/12/24 06:03:21;;;;;;;75.05;45.33;;;-6.30;99.90;;;;;;5051020;28;20392;-83
2021/12/24 06:05:49;;;;;;;69.00;41.80;;;-6.30;99.90;;;;;;5050822;28;20470;-83
2021/12/24 06:08:17;;;;;;;74.50;44.75;;;-6.40;99.90;;;;;;5052340;28;20390;-84
2021/12/24 06:10:45;;;;;;;76.72;45.38;;;-6.30;99.90;;;;;;5051882;28;20392;-84
2021/12/24 06:13:12;;;;;;;75.77;45.83;;;-6.30;99.90;;;;;;5051920;28;20474;-84
2021/12/24 06:15:46;;;;;;;73.88;44.28;;;-6.30;99.90;;;;;;5050760;28;20391;-83
2021/12/24 06:18:28;;;;;;;75.90;43.17;;;-6.40;99.90;;;;;;5050542;28;20391;-82
2021/12/24 06:21:00;;;;;;;76.90;45.22;;;-6.40;99.90;;;;;;5051704;28;20468;-83
2021/12/24 06:23:28;;;;;;;75.60;43.95;;;-6.40;99.90;;;;;;5051663;28;20395;-82
2021/12/24 06:25:58;;;;;;;77.43;46.20;;;-6.40;99.90;;;;;;5050239;28;20391;-83
2021/12/24 06:28:27;;;;;;;77.15;43.40;;;-6.40;99.90;;;;;;5050349;28;20385;-84
2021/12/24 06:30:55;;;;;;;74.47;45.03;;;-6.40;99.90;;;;;;5050354;28;20399;-84
2021/12/24 06:33:23;;;;;;;69.35;40.40;;;-6.40;99.90;;;;;;5049459;28;20396;-83
2021/12/24 06:35:56;;;;;;;74.03;43.92;;;-6.40;99.90;;;;;;5027054;28;20401;-84
2021/12/24 06:38:29;;;;;;;82.32;48.00;;;-6.50;99.90;;;;;;5050747;28;20932;-84
2021/12/24 06:40:57;;;;;;;75.82;45.47;;;-6.40;99.90;;;;;;5048876;28;20819;-84
2021/12/24 06:43:25;;;;;;;67.28;41.75;;;-6.40;99.90;;;;;;5047744;28;20391;-84
2021/12/24 06:45:54;;;;;;;74.70;43.67;;;-6.40;99.90;;;;;;5050249;28;20414;-83
2021/12/24 06:48:21;;;;;;;73.03;43.75;;;-6.40;99.90;;;;;;5050063;28;20474;-83
2021/12/24 06:50:50;;;;;;;72.80;41.63;;;-6.40;99.90;;;;;;5051715;28;20384;-83
2021/12/24 06:53:18;;;;;;;72.03;42.38;;;-6.50;99.90;;;;;;5049991;28;20499;-83
2021/12/24 06:55:46;;;;;;;72.70;43.37;;;-6.40;99.90;;;;;;5049832;28;20482;-84
2021/12/24 06:58:14;;;;;;;70.22;41.13;;;-6.50;99.90;;;;;;5033587;28;20431;-84
2021/12/24 07:00:43;;;;;;;72.28;44.17;;;-6.40;99.90;;;;;;5048426;28;20785;-84
2021/12/24 07:03:10;;;;;;;77.18;47.08;;;-6.50;99.90;;;;;;5021962;28;20770;-84
2021/12/24 07:05:38;;;;;;;72.40;42.22;;;-6.40;99.90;;;;;;5031326;28;20393;-84
2021/12/24 07:08:07;;;;;;;71.88;42.67;;;-6.40;99.90;;;;;;5013814;28;20477;-83
2021/12/24 07:10:35;;;;;;;73.00;43.63;;;-6.40;99.90;;;;;;5030026;28;20389;-84
2021/12/24 07:13:02;;;;;;;71.97;40.80;;;-6.40;99.90;;;;;;5033579;28;20407;-83
2021/12/24 07:15:30;;;;;;;73.00;43.08;;;-6.50;99.90;;;;;;5051098;28;20392;-84
2021/12/24 07:17:58;;;;;;;74.32;43.75;;;-6.40;99.90;;;;;;5054684;28;20902;-84
2021/12/24 07:20:26;;;;;;;72.30;42.75;;;-6.40;99.90;;;;;;5051008;28;20409;-84
2021/12/24 07:22:53;;;;;;;74.45;44.00;;;-6.40;99.90;;;;;;5054259;28;20443;-83
2021/12/24 07:25:22;;;;;;;70.77;43.80;;;-6.40;99.90;;;;;;5069366;28;20390;-83
2021/12/24 07:27:49;;;;;;;73.45;42.53;;;-6.40;99.90;;;;;;5069747;28;20386;-83
2021/12/24 07:30:18;;;;;;;74.82;42.83;;;-6.40;99.90;;;;;;5069398;28;20926;-84
2021/12/24 07:32:46;;;;;;;75.05;44.88;;;-6.40;99.90;;;;;;5070998;28;20412;-84
2021/12/24 07:35:14;;;;;;;77.13;45.42;;;-6.40;99.90;;;;;;5069726;28;20898;-83
2021/12/24 07:37:42;;;;;;;70.90;42.05;;;-6.40;99.90;;;;;;5073985;28;20382;-84
2021/12/24 07:40:14;;;;;;;75.18;44.00;;;-6.40;99.90;;;;;;5074784;28;20594;-83
2021/12/24 07:42:47;;;;;;;74.53;44.63;;;-6.40;99.90;;;;;;5073527;28;20949;-84
2021/12/24 07:45:17;;;;;;;73.50;44.35;;;-6.30;99.90;;;;;;5073389;28;20473;-83
2021/12/24 07:47:55;;;;;;;77.03;44.45;;;-6.40;99.90;;;;;;5073474;28;20393;-84
2021/12/24 07:52:57;;;;;;;75.32;43.65;;;-6.30;99.90;;;;;;5074608;28;20526;-83
2021/12/24 07:55:25;;;;;;;75.35;45.80;;;-6.30;99.90;;;;;;5074546;28;20477;-84
2021/12/24 07:57:53;;;;;;;74.97;44.40;;;-6.30;99.90;;;;;;5073236;28;20798;-83
2021/12/24 08:00:26;;;;;;;76.45;43.88;;;-6.30;99.90;;;;;;5073027;28;20401;-83
2021/12/24 08:02:55;;;;;;;73.87;43.70;;;-6.30;99.90;;;;;;5073207;28;20408;-82
2021/12/24 08:05:27;;;;;;;75.35;45.65;;;-6.30;99.90;;;;;;5072993;28;20440;-82
2021/12/24 08:07:55;;;;;;;75.45;45.55;;;-6.30;99.90;;;;;;5073100;28;20382;-84
2021/12/24 08:10:25;;;;;;;76.75;45.83;;;-6.30;99.90;;;;;;5056453;28;20766;-84
2021/12/24 08:12:53;;;;;;;72.30;44.30;;;-6.20;99.90;;;;;;5072935;28;20390;-83
2021/12/24 08:15:21;;;;;;;72.85;44.17;;;-6.30;99.90;;;;;;5074082;28;20390;-83
2021/12/24 08:17:48;;;;;;;78.20;47.10;;;-6.30;99.90;;;;;;5073981;28;20390;-84
2021/12/24 08:20:22;;;;;;;72.63;44.40;;;-6.20;99.90;;;;;;5056043;28;20498;-84
2021/12/24 08:22:50;;;;;;;77.28;44.08;;;-6.20;99.90;;;;;;5057363;28;20382;-85
2021/12/24 08:25:18;;;;;;;74.30;44.53;;;-6.20;99.90;;;;;;5072780;28;20469;-84
2021/12/24 08:27:46;;;;;;;68.70;41.75;;;-6.20;99.90;;;;;;5073908;28;20386;-82
2021/12/24 08:30:15;;;;;;;74.47;43.95;;;-6.20;99.90;;;;;;5055832;28;20489;-82
2021/12/24 08:32:43;;;;;;;73.95;43.90;;;-6.20;99.90;;;;;;5073837;28;20386;-83
2021/12/24 08:35:14;;;;;;;72.72;42.28;;;-6.20;99.90;;;;;;5072417;28;20399;-84
2021/12/24 08:37:43;;;;;;;76.38;44.20;;;-6.20;99.90;;;;;;5072435;28;20398;-82
2021/12/24 08:40:12;;;;;;;74.87;44.60;;;-6.20;99.90;;;;;;5038170;28;20412;-83
2021/12/24 08:42:40;;;;;;;76.07;45.28;;;-6.20;99.90;;;;;;5033745;28;20396;-84
2021/12/24 08:45:08;;;;;;;71.47;42.38;;;-6.20;99.90;;;;;;5032333;28;20473;-83
2021/12/24 08:47:36;;;;;;;74.95;44.80;;;-6.10;99.90;;;;;;5044981;28;20398;-82
2021/12/24 08:50:08;;;;;;;70.75;44.85;;;-6.20;99.90;;;;;;5036669;28;20382;-82
2021/12/24 08:52:36;;;;;;;69.13;42.75;;;-6.20;99.90;;;;;;5032438;28;20393;-83
2021/12/24 08:55:04;;;;;;;75.30;45.22;;;-6.20;99.90;;;;;;5032604;28;20389;-83
2021/12/24 08:57:32;;;;;;;70.70;42.90;;;-6.10;99.90;;;;;;5039082;28;20410;-84
2021/12/24 09:00:00;;;;;;;71.07;43.50;;;-6.10;99.90;;;;;;5035721;28;20417;-83
2021/12/24 09:02:28;;;;;;;74.90;44.33;;;-6.10;99.90;;;;;;5032173;28;20393;-82
2021/12/24 09:04:55;;;;;;;70.10;41.90;;;-6.10;99.90;;;;;;5032441;28;20382;-82
2021/12/24 09:07:23;;;;;;;67.95;42.45;;;-6.10;99.90;;;;;;5036708;28;20892;-83
2021/12/24 09:09:51;;;;;;;73.20;44.37;;;-6.10;99.90;;;;;;5071798;28;20398;-82
2021/12/24 09:12:19;;;;;;;67.47;42.00;;;-6.10;99.90;;;;;;5073021;28;20386;-82
2021/12/24 09:14:46;;;;;;;69.38;42.22;;;-6.10;99.90;;;;;;5071763;28;20393;-83
2021/12/24 09:17:14;;;;;;;66.37;41.80;;;-6.10;99.90;;;;;;5071632;28;20398;-82
2021/12/24 09:19:47;;;;;;;71.07;43.83;;;-6.10;99.90;;;;;;5072941;28;20929;-82
2021/12/24 09:22:17;;;;;;;73.55;44.58;;;-6.10;99.90;;;;;;5072683;28;20398;-82
2021/12/24 09:24:47;;;;;;;73.93;43.67;;;-6.10;99.90;;;;;;5071585;28;20952;-83
2021/12/24 09:27:15;;;;;;;73.90;43.20;;;-6.00;99.90;;;;;;5071527;28;20394;-83
2021/12/24 09:29:43;;;;;;;67.37;41.00;;;-6.00;99.90;;;;;;5071258;28;20799;-82
2021/12/24 09:32:11;;;;;;;75.80;47.30;;;-6.00;99.90;;;;;;5071382;28;20398;-82
2021/12/24 09:34:39;;;;;;;73.85;46.55;;;-6.00;99.90;;;;;;5071391;28;20393;-81
2021/12/24 09:37:07;;;;;;;70.60;43.53;;;-6.00;99.90;;;;;;5071274;28;20390;-83
2021/12/24 09:39:35;;;;;;;68.68;42.10;;;-6.00;99.90;;;;;;5071321;28;20477;-84
2021/12/24 09:42:04;;;;;;;68.00;42.10;;;-6.00;99.90;;;;;;5054590;28;20485;-85
2021/12/24 09:44:32;;;;;;;72.50;43.97;;;-5.90;99.90;;;;;;5054760;28;20418;-83
2021/12/24 09:46:59;;;;;;;67.70;43.65;;;-5.90;99.90;;;;;;5058507;28;20406;-83
2021/12/24 09:49:27;;;;;;;68.97;40.45;;;-5.90;99.90;;;;;;5047832;28;20507;-84
2021/12/24 09:51:55;;;;;;;69.38;43.58;;;-5.90;99.90;;;;;;5063699;28;20396;-84
2021/12/24 09:54:25;;;;;;;71.55;44.17;;;-5.90;99.90;;;;;;5031011;28;20648;-83
2021/12/24 09:56:55;;;;;;;66.93;41.85;;;-5.90;99.90;;;;;;5064415;28;20791;-85
2021/12/24 09:59:24;;;;;;;66.10;41.28;;;-5.90;99.90;;;;;;5047497;28;20745;-84
2021/12/24 10:01:53;;;;;;;68.35;41.83;;;-5.90;99.90;;;;;;5044758;28;20410;-84
2021/12/24 10:04:25;;;;;;;63.30;40.25;;;-5.90;99.90;;;;;;5050798;28;20881;-83
2021/12/24 10:06:54;;;;;;;72.00;44.47;;;-5.90;99.90;;;;;;5052031;28;20384;-85
2021/12/24 10:09:45;;;;;;;66.30;40.90;;;-5.90;99.90;;;;;;5052126;28;20424;-85
2021/12/24 10:12:17;;;;;;;69.20;43.15;;;-5.80;99.90;;;;;;5050492;28;20418;-84
2021/12/24 10:14:59;;;;;;;65.78;42.45;;;-5.80;99.90;;;;;;5050728;28;20392;-84
2021/12/24 10:17:35;;;;;;;72.10;45.33;;;-5.80;99.90;;;;;;5034579;28;20402;-84
2021/12/24 10:20:22;;;;;;;77.68;48.13;;;-5.80;99.90;;;;;;5050633;28;20471;-84
2021/12/24 10:22:52;;;;;;;67.20;40.73;;;-5.80;99.90;;;;;;5050566;28;20445;-83
2021/12/24 10:25:29;;;;;;;67.22;41.30;;;-5.80;99.90;;;;;;5050425;28;20479;-83
2021/12/24 10:28:09;;;;;;;70.00;41.67;;;-5.80;99.90;;;;;;5050484;28;20484;-83
2021/12/24 10:30:37;;;;;;;64.60;42.63;;;-5.80;99.90;;;;;;5043098;28;20397;-84
2021/12/24 10:33:10;;;;;;;64.93;39.75;;;-5.80;99.90;;;;;;5030454;28;20446;-84
2021/12/24 10:35:38;;;;;;;69.55;43.08;;;-5.70;99.90;;;;;;5032044;28;20393;-85
2021/12/24 10:38:14;;;;;;;63.70;42.00;;;-5.70;99.90;;;;;;5030379;28;20389;-83
2021/12/24 10:40:59;;;;;;;67.82;42.60;;;-5.70;99.90;;;;;;5030364;28;20409;-83
2021/12/24 10:43:35;;;;;;;69.68;43.65;;;-5.70;99.90;;;;;;5031481;28;20835;-84
2021/12/24 10:46:14;;;;;;;64.47;41.28;;;-5.70;99.90;;;;;;5030154;28;20441;-83
2021/12/24 10:49:02;;;;;;;67.60;42.13;;;-5.80;99.90;;;;;;5030241;28;20389;-84
2021/12/24 10:54:18;;;;;;;67.03;40.33;;;-5.70;99.90;;;;;;5030075;28;20480;-83
2021/12/24 10:56:46;;;;;;;66.50;41.47;;;-5.70;99.90;;;;;;5030104;28;20481;-83
2021/12/24 10:59:14;;;;;;;65.55;41.42;;;-5.70;99.90;;;;;;5031462;28;20879;-83
2021/12/24 11:01:42;;;;;;;64.97;41.58;;;-5.70;99.90;;;;;;5031200;28;20424;-84
2021/12/24 11:04:09;;;;;;;62.95;39.05;;;-5.70;99.90;;;;;;5030098;28;20396;-83
2021/12/24 11:06:37;;;;;;;63.95;40.72;;;-5.70;99.90;;;;;;5031315;28;20389;-83
2021/12/24 11:09:05;;;;;;;65.25;39.22;;;-5.70;99.90;;;;;;5037841;28;20407;-85
2021/12/24 11:11:38;;;;;;;62.75;39.35;;;-5.70;99.90;;;;;;5054830;28;20429;-83
2021/12/24 11:14:19;;;;;;;64.38;39.13;;;-5.70;99.90;;;;;;5075413;28;20417;-84
2021/12/24 11:16:47;;;;;;;64.22;40.17;;;-5.70;99.90;;;;;;5074195;28;20390;-84
2021/12/24 11:19:15;;;;;;;64.93;39.42;;;-5.60;99.90;;;;;;5074075;28;20382;-84
2021/12/24 11:21:43;;;;;;;64.00;39.65;;;-5.70;99.90;;;;;;5075126;28;20402;-83
2021/12/24 11:24:10;;;;;;;67.87;42.17;;;-5.60;99.90;;;;;;5073831;28;20401;-83
2021/12/24 11:26:50;;;;;;;63.83;39.85;;;-5.60;99.90;;;;;;5075087;28;20382;-83
2021/12/24 11:29:18;;;;;;;60.00;37.10;;;-5.60;99.90;;;;;;5073504;28;20386;-84
2021/12/24 11:31:46;;;;;;;63.58;40.25;;;-5.60;99.90;;;;;;5075443;28;20439;-83
2021/12/24 11:34:14;;;;;;;59.97;38.38;;;-5.60;99.90;;;;;;5073742;28;20417;-83
2021/12/24 11:36:41;;;;;;;61.83;39.80;;;-5.60;99.90;;;;;;5057131;28;20891;-84
2021/12/24 11:39:10;;;;;;;60.60;37.50;;;-5.60;99.90;;;;;;5073694;28;20389;-83
2021/12/24 11:41:40;;;;;;;62.05;37.60;;;-5.60;99.90;;;;;;5039934;28;20508;-84
2021/12/24 11:44:09;;;;;;;60.35;36.08;;;-5.60;99.90;;;;;;5035093;28;20388;-84
2021/12/24 11:46:37;;;;;;;61.47;37.40;;;-5.60;99.90;;;;;;5033588;28;20412;-83
2021/12/24 11:49:06;;;;;;;58.90;35.95;;;-5.60;99.90;;;;;;5034878;28;20822;-84
2021/12/24 11:51:40;;;;;;;60.03;37.53;;;-5.60;99.90;;;;;;5041876;28;20542;-83
2021/12/24 11:54:10;;;;;;;61.08;38.97;;;-5.60;99.90;;;;;;5053457;28;20398;-84
2021/12/24 11:56:44;;;;;;;61.30;37.78;;;-5.60;99.90;;;;;;5053531;28;20412;-84
2021/12/24 11:59:12;;;;;;;59.13;36.13;;;-5.60;99.90;;;;;;5053464;28;20943;-84
2021/12/24 12:01:43;;;;;;;58.10;35.00;;;-5.60;99.90;;;;;;5053161;28;20536;-83
2021/12/24 12:04:21;;;;;;;61.10;38.17;;;-5.50;99.90;;;;;;5054566;28;20833;-83
2021/12/24 12:06:50;;;;;;;62.13;38.13;;;-5.50;99.90;;;;;;5036843;28;20384;-82
2021/12/24 12:09:18;;;;;;;62.08;38.67;;;-5.50;99.90;;;;;;5053234;28;20441;-83
2021/12/24 12:11:56;;;;;;;59.35;37.63;;;-5.50;99.90;;;;;;5034521;28;20488;-84
2021/12/24 12:14:27;;;;;;;63.80;39.83;;;-5.50;99.90;;;;;;5033253;28;20389;-83
2021/12/24 12:17:00;;;;;;;61.95;38.55;;;-5.50;99.90;;;;;;5016694;28;20455;-83
2021/12/24 12:22:16;;;;;;;60.83;38.17;;;-5.50;99.90;;;;;;5032654;28;20401;-85
2021/12/24 12:24:58;;;;;;;60.70;38.57;;;-5.50;99.90;;;;;;5034078;28;20390;-85
2021/12/24 12:27:45;;;;;;;61.50;38.08;;;-5.50;99.90;;;;;;5034094;28;20472;-86
2021/12/24 12:30:36;;;;;;;59.05;37.70;;;-5.50;99.90;;;;;;5041502;28;20507;-83
2021/12/24 12:33:14;;;;;;;62.15;39.83;;;-5.50;99.90;;;;;;5049696;28;20385;-84
2021/12/24 12:35:56;;;;;;;61.15;36.78;;;-5.50;99.90;;;;;;5034073;28;20418;-83
2021/12/24 12:38:30;;;;;;;63.03;38.17;;;-5.50;99.90;;;;;;5032830;28;20400;-84
2021/12/24 12:41:20;;;;;;;60.08;38.22;;;-5.50;99.90;;;;;;5041944;28;20393;-85
2021/12/24 12:43:52;;;;;;;60.72;37.92;;;-5.40;99.90;;;;;;5049185;28;20405;-85
2021/12/24 12:46:32;;;;;;;61.05;37.30;;;-5.40;99.90;;;;;;5034611;28;20474;-84
2021/12/24 12:49:07;;;;;;;57.90;37.00;;;-5.40;99.90;;;;;;5035491;28;20397;-83
2021/12/24 12:51:49;;;;;;;57.13;35.77;;;-5.50;99.90;;;;;;5043142;28;20941;-85
2021/12/24 12:54:40;;;;;;;60.80;37.67;;;-5.40;99.90;;;;;;5041797;28;20731;-85
2021/12/24 12:57:21;;;;;;;66.43;41.65;;;-5.50;99.90;;;;;;5032550;28;20396;-86
2021/12/24 13:00:07;;;;;;;60.73;38.30;;;-5.40;99.90;;;;;;5032499;28;20811;-84
2021/12/24 13:02:56;;;;;;;58.67;36.70;;;-5.40;99.90;;;;;;5053132;28;20393;-84
2021/12/24 13:05:27;;;;;;;59.25;37.80;;;-5.40;99.90;;;;;;5072119;28;20394;-84
2021/12/24 13:07:59;;;;;;;61.45;38.70;;;-5.40;99.90;;;;;;5072422;28;20390;-84
2021/12/24 13:10:28;;;;;;;62.77;39.60;;;-5.40;99.90;;;;;;5072196;28;20394;-84
2021/12/24 13:13:03;;;;;;;57.67;36.63;;;-5.40;99.90;;;;;;5055590;28;20394;-83
2021/12/24 13:15:50;;;;;;;60.15;38.55;;;-5.40;99.90;;;;;;5071944;28;20474;-84
2021/12/24 13:18:32;;;;;;;60.00;38.80;;;-5.40;99.90;;;;;;5072657;28;20394;-84
2021/12/24 13:23:39;;;;;;;59.40;36.75;;;-5.40;99.90;;;;;;5071710;28;20671;-83
2021/12/24 13:26:10;;;;;;;61.90;39.03;;;-5.40;99.90;;;;;;5055522;28;20802;-83
2021/12/24 13:29:01;;;;;;;64.93;39.13;;;-5.40;99.90;;;;;;5071823;28;20476;-83
2021/12/24 13:31:30;;;;;;;64.85;40.28;;;-5.40;99.90;;;;;;5069476;28;20438;-84
2021/12/24 13:33:58;;;;;;;61.00;37.35;;;-5.40;99.90;;;;;;5069965;28;20432;-83
2021/12/24 13:36:29;;;;;;;66.57;41.95;;;-5.40;99.90;;;;;;5069357;28;20386;-82
2021/12/24 13:39:11;;;;;;;62.83;39.90;;;-5.30;99.90;;;;;;5068716;28;20407;-82
2021/12/24 13:41:41;;;;;;;60.90;38.85;;;-5.30;99.90;;;;;;5069127;28;21001;-82
2021/12/24 13:44:29;;;;;;;58.92;37.80;;;-5.40;99.90;;;;;;5069609;28;20382;-82
2021/12/24 13:47:26;;;;;;;66.40;39.73;;;-5.30;99.90;;;;;;5071526;28;20382;-85
2021/12/24 13:55:35;;;;;;;68.95;41.90;;;-5.40;99.90;;;;;;5071020;28;20891;-84
2021/12/24 13:58:09;;;;;;;71.75;43.63;;;-5.30;99.90;;;;;;5071063;28;20386;-81
2021/12/24 14:00:45;;;;;;;63.22;38.85;;;-5.30;99.90;;;;;;5071030;28;20872;-84
2021/12/24 14:03:13;;;;;;;60.67;37.50;;;-5.30;99.90;;;;;;5072214;28;20401;-83
2021/12/24 14:06:02;;;;;;;66.68;41.63;;;-5.30;99.90;;;;;;5072274;28;20382;-83
2021/12/24 14:08:36;;;;;;;68.07;41.17;;;-5.30;99.90;;;;;;5072350;28;20468;-83
2021/12/24 14:11:12;;;;;;;62.47;38.75;;;-5.30;99.90;;;;;;5072316;28;20809;-84
2021/12/24 14:13:47;;;;;;;65.00;40.13;;;-5.30;99.90;;;;;;5072196;28;20374;-84
2021/12/24 14:16:36;;;;;;;67.28;40.95;;;-5.30;99.90;;;;;;5070922;28;20907;-84
2021/12/24 14:19:16;;;;;;;68.95;42.95;;;-5.30;99.90;;;;;;5070885;28;20453;-83
2021/12/24 14:21:47;;;;;;;70.53;41.83;;;-5.20;99.90;;;;;;5071861;28;20447;-82
2021/12/24 14:24:33;;;;;;;62.25;38.60;;;-5.20;99.90;;;;;;5072134;28;20410;-82
2021/12/24 14:27:09;;;;;;;62.78;39.97;;;-5.30;99.90;;;;;;5070650;28;20391;-84
2021/12/24 14:29:38;;;;;;;65.78;40.83;;;-5.20;99.90;;;;;;5070281;28;20452;-82
2021/12/24 14:32:10;;;;;;;64.05;39.50;;;-5.20;99.90;;;;;;5070535;28;20406;-83
2021/12/24 14:34:53;;;;;;;68.55;41.60;;;-5.20;99.90;;;;;;5070525;28;20390;-82
2021/12/24 14:37:29;;;;;;;63.47;38.55;;;-5.10;99.90;;;;;;5071827;28;20397;-82
2021/12/24 14:40:09;;;;;;;73.15;44.70;;;-5.20;99.90;;;;;;5070722;28;20642;-84
2021/12/24 14:42:40;;;;;;;63.28;39.15;;;-5.10;99.90;;;;;;5070740;28;20811;-84
2021/12/24 14:45:18;;;;;;;65.90;40.23;;;-5.20;99.90;;;;;;5054111;28;20418;-82